createdAt,value
2019-06-27T00:02:54.781Z,11.47
2019-06-27T00:05:52.529Z,11.60
2019-06-27T00:08:50.235Z,11.67
2019-06-27T00:11:47.993Z,12.13
2019-06-27T00:14:45.725Z,10.97
2019-06-27T00:17:43.500Z,12.20
2019-06-27T00:20:41.196Z,11.50
2019-06-27T00:23:39.173Z,11.73
2019-06-27T00:26:37.149Z,11.27
2019-06-27T00:29:34.928Z,11.70
2019-06-27T00:32:32.605Z,10.17
2019-06-27T00:35:30.717Z,11.17
2019-06-27T00:38:30.416Z,11.10
2019-06-27T00:41:28.445Z,11.70
2019-06-27T00:44:26.529Z,10.83
2019-06-27T00:47:24.241Z,11.90
2019-06-27T00:50:22.104Z,11.40
2019-06-27T00:53:19.930Z,11.27
2019-06-27T00:56:17.952Z,10.47
2019-06-27T00:59:15.722Z,11.60
2019-06-27T01:02:15.108Z,11.50
2019-06-27T01:05:12.950Z,11.50
2019-06-27T01:08:11.014Z,10.67
2019-06-27T01:11:09.128Z,10.67
2019-06-27T01:14:06.905Z,11.60
2019-06-27T01:17:05.187Z,11.93
2019-06-27T01:20:02.994Z,11.23
2019-06-27T01:23:00.879Z,11.67
2019-06-27T01:25:58.947Z,11.50
2019-06-27T01:28:57.317Z,10.93
2019-06-27T01:31:55.739Z,11.03
2019-06-27T01:34:53.509Z,11.10
2019-06-27T01:37:51.285Z,11.13
2019-06-27T01:40:51.051Z,12.53
2019-06-27T01:43:52.338Z,11.93
2019-06-27T01:46:48.325Z,11.90
2019-06-27T01:49:46.724Z,10.70
2019-06-27T01:52:44.424Z,11.03
2019-06-27T01:55:42.525Z,10.77
2019-06-27T01:58:40.585Z,10.77
2019-06-27T02:01:38.384Z,10.23
2019-06-27T02:04:36.497Z,10.67
2019-06-27T02:07:34.572Z,11.33
2019-06-27T02:10:32.372Z,11.17
2019-06-27T02:13:30.187Z,9.80
2019-06-27T02:16:27.959Z,10.47
2019-06-27T02:19:25.724Z,10.53
2019-06-27T02:22:23.488Z,11.93
2019-06-27T02:25:22.729Z,11.17
2019-06-27T02:28:21.004Z,10.13
2019-06-27T02:31:18.933Z,10.43
2019-06-27T02:34:17.126Z,10.20
2019-06-27T02:37:14.863Z,11.27
2019-06-27T02:40:12.736Z,11.37
2019-06-27T02:43:10.980Z,10.60
2019-06-27T02:46:08.737Z,10.40
2019-06-27T02:49:06.436Z,11.33
2019-06-27T02:52:04.309Z,11.40
2019-06-27T02:55:02.130Z,11.07
2019-06-27T02:58:00.292Z,10.97
2019-06-27T03:00:58.359Z,10.80
2019-06-27T03:03:56.133Z,11.50
2019-06-27T03:06:53.914Z,11.00
2019-06-27T03:09:53.314Z,11.07
2019-06-27T03:12:51.421Z,11.00
2019-06-27T03:15:49.204Z,10.37
2019-06-27T03:18:46.984Z,10.60
2019-06-27T03:21:44.688Z,10.30
2019-06-27T03:24:42.684Z,11.80
2019-06-27T03:27:40.819Z,10.57
2019-06-27T03:30:38.602Z,11.33
2019-06-27T03:33:37.182Z,10.60
2019-06-27T03:36:35.345Z,11.47
2019-06-27T03:39:33.442Z,12.00
2019-06-27T03:42:31.453Z,12.00
2019-06-27T03:45:29.514Z,10.80
2019-06-27T03:48:27.258Z,11.07
2019-06-27T03:51:24.954Z,11.03
2019-06-27T04:18:41.074Z,11.43
2019-06-27T04:21:40.641Z,11.40
2019-06-27T04:24:39.453Z,11.93
2019-06-27T04:27:38.337Z,11.90
2019-06-27T04:30:37.131Z,12.60
2019-06-27T04:33:36.007Z,12.77
2019-06-27T04:36:35.354Z,12.73
2019-06-27T04:39:34.459Z,11.03
2019-06-27T04:42:34.095Z,12.60
2019-06-27T04:45:33.282Z,11.90
2019-06-27T04:48:32.071Z,11.90
2019-06-27T04:51:31.180Z,11.97
2019-06-27T04:54:30.478Z,12.40
2019-06-27T04:57:30.106Z,11.97
2019-06-27T05:00:30.085Z,12.30
2019-06-27T05:03:29.348Z,13.20
2019-06-27T05:06:28.279Z,11.50
2019-06-27T05:09:27.381Z,12.90
2019-06-27T05:12:26.181Z,12.10
2019-06-27T05:15:23.943Z,12.33
2019-06-27T05:18:21.857Z,11.77
2019-06-27T05:21:19.552Z,12.00
2019-06-27T05:24:17.882Z,12.73
2019-06-27T05:27:15.602Z,12.67
2019-06-27T05:30:13.496Z,11.50
2019-06-27T05:33:12.737Z,12.40
2019-06-27T05:36:10.739Z,12.03
2019-06-27T05:39:08.491Z,12.83
2019-06-27T05:42:06.256Z,12.90
2019-06-27T05:45:04.403Z,12.70
2019-06-27T05:48:02.356Z,12.00
2019-06-27T05:51:00.179Z,14.13
2019-06-27T05:53:57.901Z,12.17
2019-06-27T05:56:55.604Z,13.43
2019-06-27T05:59:53.460Z,13.37
2019-06-27T06:02:51.149Z,13.13
2019-06-27T06:05:49.096Z,13.30
2019-06-27T06:08:46.779Z,12.80
2019-06-27T06:11:44.465Z,13.10
2019-06-27T06:14:42.655Z,12.03
2019-06-27T06:17:40.498Z,12.80
2019-06-27T06:20:38.877Z,13.43
2019-06-27T06:23:36.585Z,12.87
2019-06-27T06:26:34.688Z,12.80
2019-06-27T06:29:32.386Z,13.20
2019-06-27T06:32:30.384Z,12.83
2019-06-27T06:35:28.088Z,13.03
2019-06-27T06:38:25.843Z,13.00
2019-06-27T06:41:23.853Z,13.00
2019-06-27T06:44:21.930Z,12.10
2019-06-27T06:47:20.272Z,13.37
2019-06-27T06:50:23.152Z,13.30
2019-06-27T06:53:19.264Z,12.20
2019-06-27T06:56:17.211Z,12.50
2019-06-27T06:59:15.028Z,13.87
2019-06-27T07:02:12.792Z,12.93
2019-06-27T07:05:10.884Z,13.00
2019-06-27T07:08:08.927Z,13.43
2019-06-27T07:11:06.742Z,12.10
2019-06-27T07:14:04.598Z,12.53
2019-06-27T07:17:02.264Z,13.37
2019-06-27T07:20:00.087Z,12.50
2019-06-27T07:22:57.898Z,12.60
2019-06-27T07:25:55.589Z,11.97
2019-06-27T07:28:53.529Z,12.27
2019-06-27T07:31:51.430Z,12.30
2019-06-27T07:34:49.188Z,12.13
2019-06-27T07:37:46.959Z,12.13
2019-06-27T07:40:44.661Z,12.70
2019-06-27T07:43:42.372Z,12.17
2019-06-27T07:46:40.057Z,12.50
2019-06-27T07:49:37.881Z,11.93
2019-06-27T07:52:35.919Z,11.83
2019-06-27T07:55:33.624Z,13.00
2019-06-27T07:58:31.390Z,12.90
2019-06-27T08:01:35.243Z,13.50
2019-06-27T08:04:28.506Z,13.73
2019-06-27T08:07:26.457Z,13.30
2019-06-27T08:10:24.163Z,13.63
2019-06-27T08:13:22.140Z,14.63
2019-06-27T08:16:20.439Z,12.73
2019-06-27T08:19:18.200Z,13.20
2019-06-27T08:22:16.223Z,14.10
2019-06-27T08:25:14.024Z,14.57
2019-06-27T08:28:11.743Z,14.93
2019-06-27T08:31:09.541Z,14.40
2019-06-27T08:34:07.811Z,14.37
2019-06-27T08:37:05.513Z,14.20
2019-06-27T08:40:03.292Z,13.90
2019-06-27T08:43:01.660Z,13.30
2019-06-27T08:45:59.802Z,13.97
2019-06-27T08:48:58.069Z,14.37
2019-06-27T08:51:55.835Z,14.00
2019-06-27T08:54:53.710Z,15.70
2019-06-27T08:57:51.468Z,14.60
2019-06-27T09:00:49.490Z,14.77
2019-06-27T09:03:47.204Z,15.07
2019-06-27T09:06:45.185Z,14.83
2019-06-27T09:09:42.883Z,13.43
2019-06-27T09:12:40.644Z,14.77
2019-06-27T09:15:38.659Z,14.13
2019-06-27T09:18:36.339Z,14.47
2019-06-27T09:21:34.128Z,14.00
2019-06-27T09:24:31.810Z,14.07
2019-06-27T09:27:29.642Z,13.93
2019-06-27T09:30:27.456Z,13.93
2019-06-27T09:33:25.152Z,14.30
2019-06-27T09:36:22.932Z,16.70
2019-06-27T09:39:21.309Z,14.67
2019-06-27T09:42:19.076Z,16.00
2019-06-27T09:45:16.941Z,16.90
2019-06-27T09:48:14.719Z,16.47
2019-06-27T09:51:12.480Z,14.33
2019-06-27T09:54:10.677Z,15.63
2019-06-27T09:57:08.448Z,14.93
2019-06-27T10:00:06.492Z,13.77
2019-06-27T10:03:04.253Z,14.57
2019-06-27T10:06:01.953Z,14.40
2019-06-27T10:08:59.903Z,16.47
2019-06-27T10:11:57.695Z,16.13
2019-06-27T10:14:55.509Z,15.23
2019-06-27T10:17:53.356Z,15.80
2019-06-27T10:20:51.472Z,15.63
2019-06-27T10:23:49.433Z,15.27
2019-06-27T10:26:47.204Z,16.37
2019-06-27T10:29:44.883Z,15.30
2019-06-27T10:32:57.706Z,14.63
2019-06-27T10:35:42.100Z,15.60
2019-06-27T10:38:40.549Z,15.93
2019-06-27T10:41:38.320Z,15.43
2019-06-27T10:44:36.089Z,15.50
2019-06-27T10:47:33.856Z,15.77
2019-06-27T10:50:31.532Z,15.77
2019-06-27T10:53:29.493Z,15.30
2019-06-27T10:56:27.440Z,16.20
2019-06-27T10:59:25.132Z,17.33
2019-06-27T11:02:23.188Z,15.70
2019-06-27T11:05:21.008Z,15.60
2019-06-27T11:08:19.172Z,15.77
2019-06-27T11:11:17.160Z,16.10
2019-06-27T11:14:18.695Z,16.20
2019-06-27T11:17:15.093Z,15.80
2019-06-27T11:20:15.359Z,17.67
2019-06-27T11:23:13.289Z,18.07
2019-06-27T11:26:11.321Z,19.60
2019-06-27T11:29:09.308Z,18.87
2019-06-27T11:32:07.072Z,18.40
2019-06-27T11:35:04.849Z,19.60
2019-06-27T11:38:02.540Z,19.23
2019-06-27T11:41:00.637Z,19.23
2019-06-27T11:43:58.340Z,21.23
2019-06-27T11:46:56.440Z,20.50
2019-06-27T11:49:54.497Z,20.67
2019-06-27T11:52:52.529Z,19.03
2019-06-27T11:55:50.232Z,18.97
2019-06-27T11:58:47.959Z,18.63
2019-06-27T12:01:46.039Z,20.10
2019-06-27T12:04:43.721Z,19.90
2019-06-27T12:07:41.707Z,18.77
2019-06-27T12:10:39.468Z,20.60
2019-06-27T12:13:37.519Z,19.80
2019-06-27T12:16:35.501Z,20.80
2019-06-27T12:19:33.537Z,19.33
2019-06-27T12:22:31.215Z,19.47
2019-06-27T12:25:28.998Z,18.53
2019-06-27T12:28:26.753Z,19.70
2019-06-27T12:31:24.520Z,20.47
2019-06-27T12:34:22.300Z,20.70
2019-06-27T12:37:19.984Z,20.67
2019-06-27T12:40:18.207Z,18.87
2019-06-27T12:43:16.278Z,21.77
2019-06-27T12:46:14.200Z,20.50
2019-06-27T12:49:12.520Z,20.63
2019-06-27T12:52:10.282Z,21.10
2019-06-27T12:55:08.149Z,21.40
2019-06-27T12:58:06.089Z,20.90
2019-06-27T13:01:03.916Z,19.47
2019-06-27T13:04:01.688Z,20.73
2019-06-27T13:06:59.465Z,20.43
2019-06-27T13:09:57.236Z,21.53
2019-06-27T13:12:54.991Z,20.47
2019-06-27T13:15:52.776Z,20.67
2019-06-27T13:18:50.825Z,22.57
2019-06-27T13:21:48.608Z,20.80
2019-06-27T13:24:46.388Z,21.80
2019-06-27T13:27:44.078Z,21.10
2019-06-27T13:30:42.128Z,21.00
2019-06-27T13:33:39.808Z,21.43
2019-06-27T13:36:37.516Z,22.13
2019-06-27T13:39:35.291Z,21.90
2019-06-27T13:42:33.605Z,21.07
2019-06-27T13:45:31.304Z,23.27
2019-06-27T13:48:29.044Z,23.33
2019-06-27T13:51:26.738Z,20.90
2019-06-27T13:54:24.509Z,19.83
2019-06-27T13:57:22.880Z,19.70
2019-06-27T14:00:23.914Z,21.00
2019-06-27T14:03:22.027Z,23.03
2019-06-27T14:06:20.104Z,21.93
2019-06-27T14:09:23.306Z,21.80
2019-06-27T14:12:17.656Z,21.17
2019-06-27T14:15:15.996Z,21.47
2019-06-27T14:18:13.719Z,21.20
2019-06-27T14:21:11.428Z,21.07
2019-06-27T14:24:09.262Z,19.87
2019-06-27T14:27:07.377Z,22.00
2019-06-27T14:30:05.819Z,19.47
2019-06-27T14:33:03.900Z,17.63
2019-06-27T14:36:01.960Z,19.00
2019-06-27T14:38:59.917Z,18.90
2019-06-27T14:41:57.982Z,18.50
2019-06-27T14:44:56.140Z,20.03
2019-06-27T14:47:53.920Z,20.00
2019-06-27T14:50:52.009Z,20.50
2019-06-27T14:53:50.327Z,19.70
2019-06-27T14:56:48.021Z,19.50
2019-06-27T14:59:46.136Z,19.27
2019-06-27T15:02:44.189Z,19.33
2019-06-27T15:05:42.248Z,19.83
2019-06-27T15:08:40.239Z,20.53
2019-06-27T15:11:38.264Z,20.93
2019-06-27T15:14:36.230Z,20.93
2019-06-27T15:17:34.002Z,21.60
2019-06-27T15:20:32.244Z,22.17
2019-06-27T15:23:29.980Z,22.23
2019-06-27T15:26:27.682Z,22.10
2019-06-27T15:29:25.449Z,23.53
2019-06-27T15:32:23.395Z,22.03
2019-06-27T15:35:21.092Z,23.33
2019-06-27T15:38:19.476Z,21.63
2019-06-27T15:41:17.188Z,22.90
2019-06-27T15:44:15.188Z,20.60
2019-06-27T15:47:12.982Z,22.57
2019-06-27T15:50:11.011Z,20.03
2019-06-27T15:53:08.834Z,21.03
2019-06-27T15:56:06.595Z,20.50
2019-06-27T15:59:04.295Z,19.10
2019-06-27T16:02:02.548Z,20.70
2019-06-27T16:05:00.296Z,20.53
2019-06-27T16:07:58.436Z,21.30
2019-06-27T16:10:56.494Z,19.53
2019-06-27T16:13:54.763Z,18.80
2019-06-27T16:16:52.856Z,20.27
2019-06-27T16:19:50.936Z,19.43
2019-06-27T16:22:48.622Z,19.10
2019-06-27T16:25:47.011Z,20.10
2019-06-27T16:28:44.760Z,20.10
2019-06-27T16:31:42.808Z,20.80
2019-06-27T16:34:41.293Z,19.90
2019-06-27T16:37:39.104Z,20.43
2019-06-27T16:40:37.232Z,21.10
2019-06-27T16:43:34.932Z,20.17
2019-06-27T16:46:32.609Z,21.73
2019-06-27T16:49:30.381Z,21.50
2019-06-27T16:52:28.132Z,21.00
2019-06-27T16:55:26.265Z,20.10
2019-06-27T16:58:24.265Z,19.80
2019-06-27T17:01:21.959Z,20.90
2019-06-27T17:04:19.683Z,19.40
2019-06-27T17:07:17.384Z,19.87
2019-06-27T17:10:15.723Z,19.53
2019-06-27T17:13:13.416Z,19.90
2019-06-27T17:16:11.100Z,19.33
2019-06-27T17:19:09.206Z,18.70
2019-06-27T17:22:06.964Z,18.60
2019-06-27T17:25:05.170Z,18.20
2019-06-27T17:28:02.895Z,20.00
2019-06-27T17:31:01.034Z,19.10
2019-06-27T17:33:58.716Z,18.67
2019-06-27T17:36:57.770Z,19.40
2019-06-27T17:39:55.848Z,19.83
2019-06-27T17:42:53.631Z,19.40
2019-06-27T17:45:51.328Z,19.47
2019-06-27T17:48:49.024Z,18.87
2019-06-27T17:51:46.803Z,18.43
2019-06-27T17:54:44.506Z,19.27
2019-06-27T17:57:42.255Z,18.47
2019-06-27T18:00:40.723Z,18.63
2019-06-27T18:03:38.816Z,18.53
2019-06-27T18:06:36.834Z,18.47
2019-06-27T18:09:34.897Z,17.30
2019-06-27T18:12:32.953Z,17.40
2019-06-27T18:15:30.729Z,17.33
2019-06-27T18:18:28.451Z,17.60
2019-06-27T18:21:26.146Z,16.27
2019-06-27T18:24:24.496Z,16.67
2019-06-27T18:27:22.876Z,14.97
2019-06-27T18:30:21.943Z,15.13
2019-06-27T18:33:19.629Z,15.93
2019-06-27T18:36:17.640Z,15.33
2019-06-27T18:39:15.324Z,15.73
2019-06-27T18:42:13.018Z,16.13
2019-06-27T18:45:10.879Z,14.40
2019-06-27T18:48:08.641Z,13.50
2019-06-27T18:51:06.950Z,12.43
2019-06-27T18:54:04.697Z,10.80
2019-06-27T18:57:02.848Z,10.43
2019-06-27T19:00:00.612Z,8.40
2019-06-27T19:02:58.541Z,8.13
2019-06-27T19:05:56.607Z,9.00
2019-06-27T19:08:54.351Z,9.10
2019-06-27T19:11:52.300Z,8.83
2019-06-27T19:14:50.273Z,8.23
2019-06-27T19:17:48.217Z,8.70
2019-06-27T19:20:50.504Z,7.33
2019-06-27T19:24:00.162Z,7.57
2019-06-27T19:26:57.836Z,6.23
2019-06-27T19:29:55.507Z,7.60
2019-06-27T19:32:53.341Z,7.90
2019-06-27T19:35:51.276Z,7.53
2019-06-27T19:38:48.952Z,7.60
2019-06-27T19:41:47.038Z,7.60
2019-06-27T19:44:44.700Z,8.10
2019-06-27T19:47:42.648Z,7.27
2019-06-27T19:50:40.390Z,6.90
2019-06-27T19:53:39.107Z,6.90
2019-06-27T19:56:36.933Z,6.67
2019-06-27T19:59:34.671Z,6.90
2019-06-27T20:02:32.630Z,6.10
2019-06-27T20:05:31.617Z,5.77
2019-06-27T20:08:29.428Z,7.43
2019-06-27T20:11:27.526Z,7.90
2019-06-27T20:14:25.239Z,8.00
2019-06-27T20:17:23.174Z,7.90
2019-06-27T20:20:21.302Z,6.20
2019-06-27T20:23:19.176Z,5.97
2019-06-27T20:26:16.929Z,6.23
2019-06-27T20:29:14.616Z,5.73
2019-06-27T20:32:12.616Z,5.77
2019-06-27T20:35:10.395Z,5.70
2019-06-27T20:38:08.094Z,5.30
2019-06-27T20:41:05.769Z,5.37
2019-06-27T20:44:03.463Z,5.40
2019-06-27T20:47:01.479Z,4.33
2019-06-27T20:49:59.221Z,4.23
2019-06-27T20:52:56.924Z,3.97
2019-06-27T20:55:54.615Z,4.80
2019-06-27T20:58:52.698Z,4.17
2019-06-27T21:01:50.488Z,3.63
2019-06-27T21:04:48.500Z,3.80
2019-06-27T21:07:46.649Z,3.97
2019-06-27T21:10:44.461Z,4.00
2019-06-27T21:13:42.244Z,3.80
2019-06-27T21:16:40.388Z,3.23
2019-06-27T21:19:38.476Z,3.70
2019-06-27T21:22:36.180Z,4.23
2019-06-27T21:25:34.217Z,4.13
2019-06-27T21:28:32.166Z,3.33
2019-06-27T21:31:30.102Z,3.43
2019-06-27T21:34:28.084Z,3.50
2019-06-27T21:37:25.915Z,4.20
2019-06-27T21:40:24.208Z,3.83
2019-06-27T21:43:22.152Z,3.40
2019-06-27T21:46:19.997Z,4.37
2019-06-27T21:49:18.048Z,3.57
2019-06-27T21:52:15.812Z,3.83
2019-06-27T21:55:13.832Z,3.73
2019-06-27T21:58:11.545Z,3.77
2019-06-27T22:01:09.709Z,4.17
2019-06-27T22:04:07.788Z,3.70
2019-06-27T22:07:05.601Z,3.30
2019-06-27T22:10:03.933Z,3.80
2019-06-27T22:13:01.855Z,3.30
2019-06-27T22:15:59.640Z,3.67
2019-06-27T22:18:58.056Z,3.47
2019-06-27T22:21:56.009Z,3.63
2019-06-27T22:24:54.389Z,3.33
2019-06-27T22:27:52.452Z,3.43
2019-06-27T22:30:50.460Z,3.00
2019-06-27T22:33:48.237Z,3.10
2019-06-27T22:36:46.327Z,3.73
2019-06-27T22:40:02.428Z,3.60
2019-06-27T22:43:18.460Z,2.70
2019-06-27T22:46:34.425Z,3.07
2019-06-27T22:49:31.660Z,3.20
2019-06-27T22:52:47.727Z,3.00
2019-06-27T22:55:45.500Z,3.30
2019-06-27T22:58:43.549Z,3.30
2019-06-27T23:01:41.612Z,3.17
2019-06-27T23:04:39.338Z,3.03
2019-06-27T23:07:37.375Z,3.10
2019-06-27T23:10:35.476Z,3.20
2019-06-27T23:13:33.184Z,2.63
2019-06-27T23:16:31.236Z,3.07
2019-06-27T23:19:28.933Z,2.57
2019-06-27T23:22:26.922Z,3.50
2019-06-27T23:25:24.620Z,2.97
2019-06-27T23:28:22.754Z,2.60
2019-06-27T23:31:20.690Z,3.00
2019-06-27T23:34:18.381Z,2.83
2019-06-27T23:37:16.138Z,2.70
2019-06-27T23:40:15.214Z,2.90
2019-06-27T23:43:13.032Z,2.53
2019-06-27T23:46:30.208Z,2.77
2019-06-27T23:49:28.394Z,3.33
2019-06-27T23:52:26.079Z,2.73
2019-06-27T23:55:24.381Z,2.60
2019-06-27T23:58:22.087Z,3.00
